Time;durP1;ratioP1;P1;durP2;ratioP2;P2;SDS_P1;SDS_P2;PMS_P1;PMS_P2;Temp;Humidity;BMP_temperature;BMP_pressure;BME280_temperature;BME280_humidity;BME280_pressure;Samples;Min_cycle;Max_cycle;Signal;HPM_P1;HPM_P2
2023/05/03 00:00:07;;;;;;;13.00;9.20;;;;;;;;;;511437;28;1278;-75
2023/05/03 00:00:25;;;;;;;11.05;8.52;;;;;;;;;;511711;28;1589;-75
2023/05/03 00:00:41;;;;;;;11.25;8.63;;;;;;;;;;513007;28;1290;-75
2023/05/03 00:00:59;;;;;;;11.30;8.73;;;;;;;;;;510704;28;1241;-75
2023/05/03 00:01:15;;;;;;;10.40;8.40;;;;;;;;;;510414;28;1625;-74
2023/05/03 00:01:30;;;;;;;11.13;8.60;;;;;;;;;;513086;28;1326;-75
2023/05/03 00:01:46;;;;;;;11.80;8.60;;;;;;;;;;514135;28;1464;-75
2023/05/03 00:02:02;;;;;;;11.77;8.87;;;;;;;;;;513680;28;1006;-75
2023/05/03 00:02:17;;;;;;;10.68;8.75;;;;;;;;;;513137;28;1262;-75
2023/05/03 00:02:36;;;;;;;10.82;8.73;;;;;;;;;;512549;28;1318;-74
2023/05/03 00:02:52;;;;;;;11.90;8.90;;;;;;;;;;511013;28;1450;-75
2023/05/03 00:03:08;;;;;;;10.40;8.68;;;;;;;;;;510727;28;1395;-75
2023/05/03 00:03:23;;;;;;;9.50;8.50;;;;;;;;;;510808;28;1270;-75
2023/05/03 00:03:39;;;;;;;10.10;9.00;;;;;;;;;;509478;28;1575;-76
2023/05/03 00:03:55;;;;;;;11.83;9.27;;;;;;;;;;511027;28;1222;-75
2023/05/03 00:04:10;;;;;;;13.95;9.13;;;;;;;;;;510602;28;1518;-75
2023/05/03 00:04:25;;;;;;;11.73;8.40;;;;;;;;;;513946;28;1558;-74
2023/05/03 00:04:45;;;;;;;10.23;8.03;;;;;;;;;;512146;28;1395;-75
2023/05/03 00:05:00;;;;;;;10.93;8.43;;;;;;;;;;509684;28;1361;-75
2023/05/03 00:05:16;;;;;;;10.32;8.35;;;;;;;;;;509247;28;1317;-75
2023/05/03 00:05:32;;;;;;;10.27;8.17;;;;;;;;;;509416;28;1070;-75
2023/05/03 00:05:47;;;;;;;10.35;8.38;;;;;;;;;;513157;28;1284;-75
2023/05/03 00:06:13;;;;;;;10.65;8.68;;;;;;;;;;509700;28;1267;-75
2023/05/03 00:06:28;;;;;;;10.52;9.10;;;;;;;;;;509896;28;1263;-75
2023/05/03 00:06:44;;;;;;;9.48;8.48;;;;;;;;;;510220;28;1269;-75
2023/05/03 00:06:59;;;;;;;9.93;8.00;;;;;;;;;;511870;28;1360;-75
2023/05/03 00:07:15;;;;;;;11.40;8.57;;;;;;;;;;509055;28;1336;-75
2023/05/03 00:07:31;;;;;;;10.88;8.65;;;;;;;;;;510296;28;1454;-75
2023/05/03 00:07:46;;;;;;;11.37;8.67;;;;;;;;;;509643;28;1195;-74
2023/05/03 00:08:02;;;;;;;12.00;9.20;;;;;;;;;;511062;28;1667;-75
2023/05/03 00:08:18;;;;;;;11.15;8.80;;;;;;;;;;509526;28;1589;-75
2023/05/03 00:08:33;;;;;;;11.17;8.80;;;;;;;;;;510040;28;1390;-74
2023/05/03 00:08:50;;;;;;;11.27;8.90;;;;;;;;;;509955;28;1608;-75
2023/05/03 00:09:05;;;;;;;10.57;8.73;;;;;;;;;;507455;28;1343;-75
2023/05/03 00:09:20;;;;;;;11.50;8.60;;;;;;;;;;510259;28;1101;-74
2023/05/03 00:09:36;;;;;;;11.77;8.50;;;;;;;;;;510477;28;1370;-75
2023/05/03 00:09:51;;;;;;;11.43;8.68;;;;;;;;;;510116;28;1491;-75
2023/05/03 00:10:09;;;;;;;10.93;8.63;;;;;;;;;;508113;28;1214;-74
2023/05/03 00:10:24;;;;;;;10.20;8.60;;;;;;;;;;510842;28;1562;-76
2023/05/03 00:10:40;;;;;;;11.32;8.70;;;;;;;;;;513119;28;1148;-75
2023/05/03 00:10:59;;;;;;;10.73;8.70;;;;;;;;;;512800;28;1647;-75
2023/05/03 00:11:14;;;;;;;11.18;9.00;;;;;;;;;;511475;28;1380;-75
2023/05/03 00:11:30;;;;;;;12.07;9.07;;;;;;;;;;512036;28;1207;-75
2023/05/03 00:11:45;;;;;;;12.82;9.05;;;;;;;;;;510735;28;1369;-75
2023/05/03 00:12:01;;;;;;;12.90;9.00;;;;;;;;;;510522;28;1938;-74
2023/05/03 00:12:17;;;;;;;10.48;8.25;;;;;;;;;;511040;28;1434;-75
2023/05/03 00:12:32;;;;;;;9.50;8.07;;;;;;;;;;511560;28;1108;-75
2023/05/03 00:12:48;;;;;;;10.77;8.60;;;;;;;;;;511231;28;951;-74
2023/05/03 00:13:05;;;;;;;10.88;8.50;;;;;;;;;;511671;28;1387;-75
2023/05/03 00:13:21;;;;;;;10.90;8.50;;;;;;;;;;511932;28;1810;-74
2023/05/03 00:13:36;;;;;;;10.95;8.82;;;;;;;;;;513648;28;1417;-75
2023/05/03 00:13:52;;;;;;;12.07;8.80;;;;;;;;;;513227;28;1496;-75
2023/05/03 00:14:07;;;;;;;12.88;8.70;;;;;;;;;;511728;28;1348;-75
2023/05/03 00:14:22;;;;;;;11.07;8.60;;;;;;;;;;509043;28;1201;-74
2023/05/03 00:14:38;;;;;;;9.93;8.38;;;;;;;;;;511743;28;1363;-74
2023/05/03 00:14:53;;;;;;;10.23;8.40;;;;;;;;;;514437;28;1328;-74
2023/05/03 00:15:09;;;;;;;11.63;8.80;;;;;;;;;;515078;28;1330;-74
2023/05/03 00:15:25;;;;;;;11.32;8.93;;;;;;;;;;513360;28;1307;-74
2023/05/03 00:15:40;;;;;;;9.80;8.50;;;;;;;;;;513294;28;1341;-76
2023/05/03 00:15:56;;;;;;;10.13;8.47;;;;;;;;;;511858;28;1223;-76
2023/05/03 00:16:12;;;;;;;11.77;8.90;;;;;;;;;;510435;28;1495;-75
2023/05/03 00:16:27;;;;;;;11.18;8.98;;;;;;;;;;507501;28;1407;-74
2023/05/03 00:16:45;;;;;;;10.23;8.83;;;;;;;;;;506379;28;1125;-74
2023/05/03 00:17:01;;;;;;;10.38;8.80;;;;;;;;;;508763;28;1738;-73
2023/05/03 00:17:37;;;;;;;10.53;8.80;;;;;;;;;;512612;28;1317;-72
2023/05/03 00:18:01;;;;;;;11.25;8.63;;;;;;;;;;513009;28;1426;-75
2023/05/03 00:18:17;;;;;;;9.88;8.77;;;;;;;;;;515475;28;1468;-75
2023/05/03 00:18:53;;;;;;;10.40;8.63;;;;;;;;;;512829;28;1353;-75
2023/05/03 00:19:08;;;;;;;11.32;8.52;;;;;;;;;;508298;28;1356;-75
2023/05/03 00:19:28;;;;;;;10.52;8.75;;;;;;;;;;508463;28;1271;-76
2023/05/03 00:19:44;;;;;;;12.55;9.07;;;;;;;;;;509890;28;1628;-76
2023/05/03 00:20:03;;;;;;;12.07;8.93;;;;;;;;;;511094;28;1375;-76
2023/05/03 00:20:19;;;;;;;12.70;9.45;;;;;;;;;;510428;28;1710;-75
2023/05/03 00:20:34;;;;;;;13.80;9.73;;;;;;;;;;510476;28;1410;-76
2023/05/03 00:20:50;;;;;;;12.18;9.43;;;;;;;;;;510734;28;1077;-75
2023/05/03 00:21:06;;;;;;;10.90;9.10;;;;;;;;;;510679;28;1441;-75
2023/05/03 00:21:21;;;;;;;11.57;9.30;;;;;;;;;;512387;28;1295;-75
2023/05/03 00:21:39;;;;;;;11.27;9.30;;;;;;;;;;514818;28;1476;-75
2023/05/03 00:21:55;;;;;;;11.02;8.93;;;;;;;;;;512322;28;1517;-74
2023/05/03 00:22:11;;;;;;;11.23;9.03;;;;;;;;;;507961;28;1326;-75
2023/05/03 00:22:27;;;;;;;10.45;9.02;;;;;;;;;;509343;28;1354;-75
2023/05/03 00:22:42;;;;;;;10.40;8.77;;;;;;;;;;510459;28;1302;-75
2023/05/03 00:23:01;;;;;;;10.73;8.98;;;;;;;;;;510217;28;1295;-75
2023/05/03 00:23:16;;;;;;;11.68;9.18;;;;;;;;;;513178;28;1446;-75
2023/05/03 00:23:31;;;;;;;12.07;9.37;;;;;;;;;;514263;28;1183;-75
2023/05/03 00:23:47;;;;;;;11.25;9.52;;;;;;;;;;513815;28;1116;-75
2023/05/03 00:24:05;;;;;;;10.77;9.27;;;;;;;;;;511404;28;1413;-75
2023/05/03 00:24:21;;;;;;;11.45;9.02;;;;;;;;;;511220;28;1467;-75
2023/05/03 00:24:36;;;;;;;10.97;9.23;;;;;;;;;;512711;28;1259;-75
2023/05/03 00:24:52;;;;;;;10.68;9.38;;;;;;;;;;509878;28;1331;-75
2023/05/03 00:25:08;;;;;;;10.63;9.20;;;;;;;;;;510392;28;1220;-75
2023/05/03 00:25:24;;;;;;;11.32;8.98;;;;;;;;;;510987;28;1279;-74
2023/05/03 00:25:39;;;;;;;10.07;8.33;;;;;;;;;;513296;28;1160;-74
2023/05/03 00:25:59;;;;;;;10.25;8.80;;;;;;;;;;512173;28;1511;-75
2023/05/03 00:26:32;;;;;;;10.30;8.80;;;;;;;;;;510743;28;1536;-76
2023/05/03 00:26:53;;;;;;;10.57;8.82;;;;;;;;;;509779;28;1376;-74
2023/05/03 00:27:09;;;;;;;9.82;8.52;;;;;;;;;;510520;28;1177;-74
2023/05/03 00:27:25;;;;;;;9.90;8.45;;;;;;;;;;512024;28;1302;-74
2023/05/03 00:27:40;;;;;;;9.07;8.13;;;;;;;;;;513024;28;1375;-74
2023/05/03 00:27:56;;;;;;;9.27;8.38;;;;;;;;;;514302;28;1065;-74
2023/05/03 00:28:31;;;;;;;10.30;8.70;;;;;;;;;;514113;28;1456;-74
2023/05/03 00:28:47;;;;;;;9.45;8.45;;;;;;;;;;511257;28;1437;-74
2023/05/03 00:29:02;;;;;;;9.90;8.88;;;;;;;;;;511284;28;1419;-74
2023/05/03 00:29:20;;;;;;;9.30;8.20;;;;;;;;;;513381;28;1275;-73
2023/05/03 00:29:35;;;;;;;8.25;7.45;;;;;;;;;;514394;28;1075;-74
2023/05/03 00:29:53;;;;;;;9.02;7.88;;;;;;;;;;511547;28;1429;-74
2023/05/03 00:30:09;;;;;;;10.25;8.35;;;;;;;;;;511883;28;1512;-72
2023/05/03 00:30:25;;;;;;;9.45;8.45;;;;;;;;;;511694;28;1365;-75
2023/05/03 00:30:43;;;;;;;10.63;8.48;;;;;;;;;;512256;28;1291;-75
2023/05/03 00:31:05;;;;;;;10.77;8.25;;;;;;;;;;514270;28;1395;-74
2023/05/03 00:31:20;;;;;;;11.15;8.80;;;;;;;;;;514988;28;974;-75
2023/05/03 00:31:36;;;;;;;12.53;9.07;;;;;;;;;;511932;28;1408;-75
2023/05/03 00:31:54;;;;;;;12.60;8.80;;;;;;;;;;513826;28;1335;-75
2023/05/03 00:32:10;;;;;;;12.38;8.68;;;;;;;;;;512065;28;1942;-74
2023/05/03 00:32:25;;;;;;;11.82;8.70;;;;;;;;;;508073;28;1215;-75
2023/05/03 00:32:41;;;;;;;11.27;8.57;;;;;;;;;;510916;28;1148;-75
2023/05/03 00:32:56;;;;;;;12.48;8.80;;;;;;;;;;509798;28;1350;-73
2023/05/03 00:33:12;;;;;;;12.33;8.63;;;;;;;;;;512839;28;1464;-74
2023/05/03 00:33:27;;;;;;;11.43;8.43;;;;;;;;;;512067;28;1400;-74
2023/05/03 00:33:43;;;;;;;11.17;8.47;;;;;;;;;;512540;28;1184;-74
2023/05/03 00:33:58;;;;;;;10.85;8.70;;;;;;;;;;513678;28;1265;-74
2023/05/03 00:34:14;;;;;;;11.10;8.70;;;;;;;;;;514638;28;1494;-75
2023/05/03 00:34:49;;;;;;;9.43;8.13;;;;;;;;;;511923;28;1491;-75
2023/05/03 00:35:05;;;;;;;9.23;7.78;;;;;;;;;;511307;28;1910;-75
2023/05/03 00:35:21;;;;;;;10.73;8.18;;;;;;;;;;512410;28;1257;-75
2023/05/03 00:35:39;;;;;;;9.73;8.00;;;;;;;;;;513813;28;1041;-74
2023/05/03 00:35:57;;;;;;;11.20;8.15;;;;;;;;;;511617;28;1311;-74
2023/05/03 00:36:13;;;;;;;12.98;8.40;;;;;;;;;;514431;28;1290;-74
2023/05/03 00:36:29;;;;;;;11.05;8.38;;;;;;;;;;516513;28;1389;-75
2023/05/03 00:37:05;;;;;;;10.20;8.30;;;;;;;;;;514379;28;1332;-75
2023/05/03 00:37:21;;;;;;;13.48;8.63;;;;;;;;;;512462;28;1429;-75
2023/05/03 00:37:37;;;;;;;11.93;8.50;;;;;;;;;;511801;28;1243;-74
2023/05/03 00:37:55;;;;;;;10.93;8.43;;;;;;;;;;514856;28;1116;-74
2023/05/03 00:38:13;;;;;;;12.20;8.60;;;;;;;;;;515635;28;1064;-75
2023/05/03 00:38:28;;;;;;;12.98;8.82;;;;;;;;;;515863;28;1341;-76
2023/05/03 00:38:43;;;;;;;12.50;8.93;;;;;;;;;;514646;28;1467;-75
2023/05/03 00:38:59;;;;;;;11.25;9.02;;;;;;;;;;513695;28;1314;-75
2023/05/03 00:39:17;;;;;;;11.60;8.90;;;;;;;;;;513867;28;1022;-75
2023/05/03 00:39:33;;;;;;;11.48;8.70;;;;;;;;;;515130;28;1515;-74
2023/05/03 00:39:48;;;;;;;10.37;8.23;;;;;;;;;;514671;28;1263;-74
2023/05/03 00:40:06;;;;;;;11.23;8.32;;;;;;;;;;513439;28;1131;-75
2023/05/03 00:40:21;;;;;;;10.60;8.40;;;;;;;;;;512107;28;1297;-74
2023/05/03 00:40:39;;;;;;;9.23;8.03;;;;;;;;;;514614;28;1120;-74
2023/05/03 00:40:57;;;;;;;9.93;8.25;;;;;;;;;;516618;28;1392;-74
2023/05/03 00:41:12;;;;;;;10.98;8.68;;;;;;;;;;514563;28;1415;-74
2023/05/03 00:41:28;;;;;;;11.73;8.77;;;;;;;;;;516086;28;980;-74
2023/05/03 00:41:43;;;;;;;11.40;8.70;;;;;;;;;;513785;28;1230;-74
2023/05/03 00:42:00;;;;;;;11.25;8.93;;;;;;;;;;512070;28;1369;-74
2023/05/03 00:42:15;;;;;;;11.38;9.15;;;;;;;;;;512461;28;1698;-74
2023/05/03 00:42:32;;;;;;;10.45;8.52;;;;;;;;;;511870;28;1291;-75
2023/05/03 00:42:48;;;;;;;8.90;8.00;;;;;;;;;;509232;28;1334;-75
2023/05/03 00:43:03;;;;;;;9.27;8.10;;;;;;;;;;513254;28;1280;-75
2023/05/03 00:43:19;;;;;;;10.80;8.50;;;;;;;;;;514061;28;1375;-75
2023/05/03 00:43:34;;;;;;;10.40;8.43;;;;;;;;;;514217;28;1229;-74
2023/05/03 00:43:50;;;;;;;10.93;8.52;;;;;;;;;;511687;28;1385;-75
2023/05/03 00:44:05;;;;;;;11.27;8.68;;;;;;;;;;511435;28;1025;-75
2023/05/03 00:44:21;;;;;;;10.07;8.40;;;;;;;;;;512918;28;1339;-75
2023/05/03 00:44:36;;;;;;;10.43;8.37;;;;;;;;;;509933;28;1203;-74
2023/05/03 00:44:52;;;;;;;11.60;8.68;;;;;;;;;;510465;28;1256;-75
2023/05/03 00:45:07;;;;;;;10.27;8.30;;;;;;;;;;510555;28;1594;-75
2023/05/03 00:45:23;;;;;;;9.80;8.40;;;;;;;;;;509925;28;946;-75
2023/05/03 00:45:38;;;;;;;11.07;8.57;;;;;;;;;;511572;28;1059;-74
2023/05/03 00:45:54;;;;;;;10.53;8.50;;;;;;;;;;510851;28;1255;-74
2023/05/03 00:46:10;;;;;;;11.18;8.68;;;;;;;;;;511279;28;1210;-75
2023/05/03 00:46:26;;;;;;;12.35;8.75;;;;;;;;;;508760;28;1403;-74
2023/05/03 00:46:41;;;;;;;12.33;8.93;;;;;;;;;;509788;28;1240;-75
2023/05/03 00:46:56;;;;;;;9.73;8.35;;;;;;;;;;512085;28;1208;-74
2023/05/03 00:47:12;;;;;;;8.83;7.93;;;;;;;;;;509716;28;1236;-75
2023/05/03 00:47:28;;;;;;;9.13;8.23;;;;;;;;;;510207;28;1408;-74
2023/05/03 00:47:44;;;;;;;10.90;8.63;;;;;;;;;;511034;28;1125;-74
2023/05/03 00:48:00;;;;;;;11.63;8.65;;;;;;;;;;509171;28;1282;-74
2023/05/03 00:48:17;;;;;;;10.30;8.38;;;;;;;;;;511201;28;1388;-75
2023/05/03 00:48:53;;;;;;;10.52;8.60;;;;;;;;;;512299;28;1136;-74
2023/05/03 00:49:09;;;;;;;12.50;9.02;;;;;;;;;;510028;28;2108;-75
2023/05/03 00:49:24;;;;;;;13.18;8.85;;;;;;;;;;512395;28;958;-75
2023/05/03 00:50:00;;;;;;;11.07;8.73;;;;;;;;;;511715;28;1450;-74
2023/05/03 00:50:16;;;;;;;11.30;9.43;;;;;;;;;;513961;28;1389;-75
2023/05/03 00:50:31;;;;;;;11.45;9.23;;;;;;;;;;512551;28;1484;-74
2023/05/03 00:50:47;;;;;;;11.40;9.00;;;;;;;;;;511802;28;1323;-74
2023/05/03 00:51:04;;;;;;;10.82;8.98;;;;;;;;;;512277;28;1463;-75
2023/05/03 00:51:19;;;;;;;10.80;9.02;;;;;;;;;;514403;28;1069;-74
2023/05/03 00:51:35;;;;;;;12.48;9.68;;;;;;;;;;514524;28;1249;-75
2023/05/03 00:51:53;;;;;;;13.15;9.95;;;;;;;;;;515121;28;1136;-74
2023/05/03 00:52:10;;;;;;;12.90;9.38;;;;;;;;;;515365;28;1904;-75
2023/05/03 00:52:26;;;;;;;12.35;9.10;;;;;;;;;;512318;28;1790;-75
2023/05/03 00:52:41;;;;;;;11.07;8.75;;;;;;;;;;513618;28;1448;-74
2023/05/03 00:52:57;;;;;;;10.48;8.40;;;;;;;;;;510744;28;1309;-74
2023/05/03 00:53:15;;;;;;;9.97;8.27;;;;;;;;;;511885;28;1073;-75
2023/05/03 00:53:32;;;;;;;9.68;8.48;;;;;;;;;;511916;28;1263;-75
2023/05/03 00:53:47;;;;;;;10.57;8.93;;;;;;;;;;512348;28;1415;-74
2023/05/03 00:54:03;;;;;;;12.13;9.35;;;;;;;;;;514383;28;885;-76
2023/05/03 00:54:19;;;;;;;11.97;9.30;;;;;;;;;;512647;28;1207;-74
2023/05/03 00:54:35;;;;;;;11.68;9.20;;;;;;;;;;515088;28;1011;-75
2023/05/03 00:54:50;;;;;;;12.48;8.98;;;;;;;;;;513768;28;1480;-74
2023/05/03 00:55:06;;;;;;;12.95;9.07;;;;;;;;;;513678;28;1473;-75
2023/05/03 00:55:22;;;;;;;12.90;9.80;;;;;;;;;;513702;28;1334;-75
2023/05/03 00:55:58;;;;;;;11.82;9.63;;;;;;;;;;513658;28;1177;-75
2023/05/03 00:56:18;;;;;;;12.73;9.68;;;;;;;;;;514779;28;1251;-74
2023/05/03 00:56:34;;;;;;;11.40;9.38;;;;;;;;;;515275;28;1333;-74
2023/05/03 00:56:49;;;;;;;12.05;9.23;;;;;;;;;;515047;28;1481;-74
2023/05/03 00:57:05;;;;;;;12.68;9.27;;;;;;;;;;515405;28;1331;-75
2023/05/03 00:57:21;;;;;;;10.98;9.10;;;;;;;;;;516678;28;1041;-74
2023/05/03 00:57:37;;;;;;;10.15;8.90;;;;;;;;;;516494;28;1037;-75
2023/05/03 00:57:52;;;;;;;9.67;8.30;;;;;;;;;;513146;28;1389;-74
2023/05/03 00:58:07;;;;;;;11.20;8.27;;;;;;;;;;514170;28;1271;-75
2023/05/03 00:58:23;;;;;;;12.30;8.85;;;;;;;;;;514882;28;981;-75
2023/05/03 00:58:39;;;;;;;12.73;9.27;;;;;;;;;;515528;28;985;-75
2023/05/03 00:58:54;;;;;;;12.30;9.20;;;;;;;;;;514784;28;1407;-74
2023/05/03 00:59:10;;;;;;;10.30;8.98;;;;;;;;;;516904;28;1262;-75
2023/05/03 00:59:26;;;;;;;9.95;8.95;;;;;;;;;;515054;28;1226;-75
2023/05/03 00:59:42;;;;;;;10.45;9.35;;;;;;;;;;515180;28;1470;-74
2023/05/03 01:00:00;;;;;;;10.10;9.00;;;;;;;;;;512591;28;1636;-74
2023/05/03 01:00:16;;;;;;;8.95;8.05;;;;;;;;;;512154;28;1528;-74
2023/05/03 01:00:34;;;;;;;9.70;8.45;;;;;;;;;;513005;28;1516;-75
2023/05/03 01:00:49;;;;;;;9.88;8.80;;;;;;;;;;511246;28;1785;-75
2023/05/03 01:01:07;;;;;;;9.87;8.87;;;;;;;;;;513007;28;1373;-74
2023/05/03 01:01:24;;;;;;;9.85;8.45;;;;;;;;;;513478;28;1373;-75
2023/05/03 01:01:39;;;;;;;9.52;8.27;;;;;;;;;;516160;28;1037;-75
2023/05/03 01:01:54;;;;;;;9.45;8.13;;;;;;;;;;515551;28;1435;-75
2023/05/03 01:02:12;;;;;;;9.60;8.20;;;;;;;;;;515735;28;950;-75
2023/05/03 01:02:28;;;;;;;9.60;8.32;;;;;;;;;;515440;28;994;-75
2023/05/03 01:02:43;;;;;;;10.33;8.70;;;;;;;;;;515895;28;1030;-74
2023/05/03 01:02:59;;;;;;;9.85;8.77;;;;;;;;;;516240;28;1433;-75
2023/05/03 01:03:14;;;;;;;9.63;8.57;;;;;;;;;;516518;28;1469;-75
2023/05/03 01:03:31;;;;;;;11.95;8.95;;;;;;;;;;514451;28;1273;-74
2023/05/03 01:03:47;;;;;;;11.88;9.00;;;;;;;;;;512925;28;957;-75
2023/05/03 01:04:06;;;;;;;11.50;9.10;;;;;;;;;;514151;28;1203;-73
2023/05/03 01:04:22;;;;;;;11.55;9.05;;;;;;;;;;516142;28;1421;-75
2023/05/03 01:04:58;;;;;;;12.05;9.27;;;;;;;;;;513671;28;1210;-75
2023/05/03 01:05:13;;;;;;;9.40;8.40;;;;;;;;;;514575;28;1316;-75
2023/05/03 01:05:32;;;;;;;10.27;8.63;;;;;;;;;;515956;28;1195;-75
2023/05/03 01:05:56;;;;;;;12.07;9.05;;;;;;;;;;514947;28;1203;-75
2023/05/03 01:06:31;;;;;;;10.25;8.68;;;;;;;;;;513155;28;1544;-75
2023/05/03 01:07:04;;;;;;;12.33;8.57;;;;;;;;;;512737;28;1668;-75
2023/05/03 01:07:38;;;;;;;10.63;8.05;;;;;;;;;;513882;28;1451;-75
2023/05/03 01:08:05;;;;;;;9.73;8.27;;;;;;;;;;516379;28;1293;-74
2023/05/03 01:08:28;;;;;;;10.95;8.25;;;;;;;;;;518057;27;1349;-75
2023/05/03 01:08:47;;;;;;;12.43;8.32;;;;;;;;;;513484;28;1395;-75
2023/05/03 01:09:16;;;;;;;12.48;8.60;;;;;;;;;;513898;28;1338;-75
2023/05/03 01:09:38;;;;;;;11.00;8.32;;;;;;;;;;513480;28;1379;-75
2023/05/03 01:10:20;;;;;;;10.65;8.30;;;;;;;;;;513134;28;1116;-74
2023/05/03 01:10:46;;;;;;;11.98;8.35;;;;;;;;;;515547;28;983;-74
2023/05/03 01:11:03;;;;;;;10.88;8.57;;;;;;;;;;514374;28;900;-76
2023/05/03 01:11:21;;;;;;;10.23;8.45;;;;;;;;;;514416;28;1386;-75
2023/05/03 01:11:46;;;;;;;10.55;8.73;;;;;;;;;;516311;27;1039;-75
2023/05/03 01:12:13;;;;;;;9.07;8.10;;;;;;;;;;519074;28;1923;-75
2023/05/03 01:12:47;;;;;;;10.32;7.85;;;;;;;;;;516493;28;1488;-75
2023/05/03 01:13:23;;;;;;;8.80;7.85;;;;;;;;;;516523;28;1829;-75
2023/05/03 01:13:41;;;;;;;9.88;7.97;;;;;;;;;;515136;28;1412;-75
2023/05/03 01:14:05;;;;;;;10.90;8.07;;;;;;;;;;513360;28;1402;-76
2023/05/03 01:14:39;;;;;;;11.07;7.97;;;;;;;;;;514032;28;1468;-74
2023/05/03 01:14:54;;;;;;;9.75;7.68;;;;;;;;;;517765;28;1357;-75
2023/05/03 01:15:10;;;;;;;10.77;8.30;;;;;;;;;;515392;28;1725;-75
2023/05/03 01:15:38;;;;;;;12.70;8.60;;;;;;;;;;514832;28;1441;-75
2023/05/03 01:15:59;;;;;;;11.00;8.50;;;;;;;;;;514133;28;1421;-75
2023/05/03 01:16:41;;;;;;;9.77;8.43;;;;;;;;;;511849;28;1096;-75
2023/05/03 01:16:59;;;;;;;10.70;8.65;;;;;;;;;;504127;28;1502;-75
2023/05/03 01:17:14;;;;;;;10.35;8.80;;;;;;;;;;514960;28;1356;-75
2023/05/03 01:17:34;;;;;;;10.80;9.38;;;;;;;;;;515226;28;1441;-75
2023/05/03 01:18:11;;;;;;;11.02;9.23;;;;;;;;;;513216;28;1301;-75
2023/05/03 01:18:32;;;;;;;12.15;9.43;;;;;;;;;;509912;28;1479;-75
2023/05/03 01:19:08;;;;;;;12.90;9.40;;;;;;;;;;507044;28;1749;-76
2023/05/03 01:19:27;;;;;;;11.48;8.95;;;;;;;;;;507462;28;1312;-75
2023/05/03 01:19:50;;;;;;;9.50;8.25;;;;;;;;;;512120;28;1530;-75
2023/05/03 01:20:12;;;;;;;8.55;7.65;;;;;;;;;;513650;28;1472;-74
2023/05/03 01:20:29;;;;;;;9.48;8.48;;;;;;;;;;514749;28;1266;-75
2023/05/03 01:20:47;;;;;;;9.20;8.20;;;;;;;;;;513731;28;1357;-75
2023/05/03 01:21:04;;;;;;;9.85;7.82;;;;;;;;;;512679;28;1499;-75
2023/05/03 01:21:21;;;;;;;11.10;8.27;;;;;;;;;;511426;28;1467;-75
2023/05/03 01:21:37;;;;;;;11.15;8.85;;;;;;;;;;509991;28;1456;-75
2023/05/03 01:21:58;;;;;;;11.30;8.90;;;;;;;;;;510833;28;1270;-75
2023/05/03 01:22:21;;;;;;;9.80;8.00;;;;;;;;;;512352;28;1134;-75
2023/05/03 01:22:43;;;;;;;9.02;7.93;;;;;;;;;;514866;28;1440;-75
2023/05/03 01:22:58;;;;;;;9.50;8.25;;;;;;;;;;512708;28;1473;-75
2023/05/03 01:23:17;;;;;;;9.90;8.20;;;;;;;;;;511414;28;1555;-75
2023/05/03 01:23:45;;;;;;;12.05;8.75;;;;;;;;;;513335;28;1532;-75
2023/05/03 01:24:07;;;;;;;11.98;8.80;;;;;;;;;;513009;28;1367;-75
2023/05/03 01:24:23;;;;;;;9.10;8.00;;;;;;;;;;511005;28;1378;-75
2023/05/03 01:24:40;;;;;;;10.27;8.30;;;;;;;;;;510523;28;1077;-75
2023/05/03 01:25:09;;;;;;;11.10;8.30;;;;;;;;;;513875;28;1413;-76
2023/05/03 01:25:25;;;;;;;11.07;8.70;;;;;;;;;;515194;28;1479;-75
2023/05/03 01:25:41;;;;;;;12.13;8.87;;;;;;;;;;513166;28;1343;-75
2023/05/03 01:25:56;;;;;;;13.53;8.80;;;;;;;;;;513727;28;1332;-75
2023/05/03 01:26:15;;;;;;;12.70;8.80;;;;;;;;;;512622;28;1693;-75
2023/05/03 01:26:32;;;;;;;9.40;8.40;;;;;;;;;;513845;28;1509;-76
2023/05/03 01:26:47;;;;;;;9.50;8.35;;;;;;;;;;509072;28;1412;-74
2023/05/03 01:27:23;;;;;;;9.98;8.15;;;;;;;;;;508247;28;1679;-76
2023/05/03 01:27:39;;;;;;;10.48;8.73;;;;;;;;;;509233;28;1429;-75
2023/05/03 01:27:54;;;;;;;10.40;8.75;;;;;;;;;;512848;28;1474;-75
2023/05/03 01:28:10;;;;;;;9.43;8.47;;;;;;;;;;511636;28;1466;-76
2023/05/03 01:28:25;;;;;;;9.00;8.10;;;;;;;;;;510613;28;1362;-75
2023/05/03 01:28:41;;;;;;;10.73;8.27;;;;;;;;;;510078;28;1385;-75
2023/05/03 01:28:56;;;;;;;12.50;8.70;;;;;;;;;;511287;28;1176;-76
2023/05/03 01:29:13;;;;;;;12.18;8.85;;;;;;;;;;506624;28;1252;-75
2023/05/03 01:29:29;;;;;;;12.27;9.05;;;;;;;;;;506956;28;1797;-75
2023/05/03 01:29:47;;;;;;;11.83;8.90;;;;;;;;;;507508;28;1228;-75
2023/05/03 01:30:07;;;;;;;10.98;8.50;;;;;;;;;;507982;28;1114;-76
2023/05/03 01:30:25;;;;;;;11.18;8.73;;;;;;;;;;507760;28;1431;-75
2023/05/03 01:30:41;;;;;;;9.85;8.77;;;;;;;;;;508683;28;1239;-75
2023/05/03 01:30:57;;;;;;;9.73;8.50;;;;;;;;;;510624;28;1327;-75
2023/05/03 01:31:16;;;;;;;10.32;8.50;;;;;;;;;;511472;28;1422;-75
2023/05/03 01:31:34;;;;;;;10.18;8.63;;;;;;;;;;512334;28;1141;-75
2023/05/03 01:31:53;;;;;;;11.05;8.45;;;;;;;;;;514076;28;1230;-76
2023/05/03 01:32:13;;;;;;;11.02;8.27;;;;;;;;;;511262;28;1937;-76
2023/05/03 01:32:35;;;;;;;11.30;8.38;;;;;;;;;;510712;28;1457;-75
2023/05/03 01:33:08;;;;;;;10.18;8.35;;;;;;;;;;514386;28;1410;-75
2023/05/03 01:33:26;;;;;;;10.77;8.43;;;;;;;;;;516246;28;1302;-74
2023/05/03 01:33:45;;;;;;;10.63;8.30;;;;;;;;;;513112;28;1291;-73
2023/05/03 01:34:00;;;;;;;10.70;8.52;;;;;;;;;;512903;28;1286;-75
2023/05/03 01:34:16;;;;;;;10.25;8.60;;;;;;;;;;512079;28;1270;-75
2023/05/03 01:34:41;;;;;;;9.60;8.27;;;;;;;;;;509878;28;1477;-75
2023/05/03 01:35:07;;;;;;;10.35;8.20;;;;;;;;;;507549;28;1606;-75
2023/05/03 01:35:28;;;;;;;11.00;8.50;;;;;;;;;;510112;28;1275;-76
2023/05/03 01:35:46;;;;;;;8.93;8.02;;;;;;;;;;509799;28;1303;-76
2023/05/03 01:36:10;;;;;;;9.15;7.85;;;;;;;;;;512882;28;1061;-76
2023/05/03 01:36:31;;;;;;;10.35;7.93;;;;;;;;;;515326;28;1033;-76
2023/05/03 01:36:48;;;;;;;10.60;8.27;;;;;;;;;;515817;28;1069;-76
2023/05/03 01:37:03;;;;;;;9.57;8.13;;;;;;;;;;515861;27;1092;-75
2023/05/03 01:37:19;;;;;;;9.53;8.00;;;;;;;;;;514296;28;1285;-76
2023/05/03 01:37:35;;;;;;;9.45;8.00;;;;;;;;;;513749;28;1231;-74
2023/05/03 01:37:51;;;;;;;9.10;7.75;;;;;;;;;;517456;28;1039;-77
2023/05/03 01:38:07;;;;;;;8.95;7.75;;;;;;;;;;516751;28;1382;-75
2023/05/03 01:38:22;;;;;;;9.73;8.23;;;;;;;;;;516042;28;1469;-75
2023/05/03 01:38:38;;;;;;;9.37;8.37;;;;;;;;;;515735;28;940;-75
2023/05/03 01:38:53;;;;;;;9.38;8.07;;;;;;;;;;515131;28;1319;-75
2023/05/03 01:39:17;;;;;;;10.38;8.00;;;;;;;;;;513086;28;1356;-74
2023/05/03 01:39:32;;;;;;;10.48;7.90;;;;;;;;;;512529;28;1513;-75
2023/05/03 01:39:54;;;;;;;10.37;8.00;;;;;;;;;;511725;28;1163;-75
2023/05/03 01:40:15;;;;;;;11.85;8.48;;;;;;;;;;511272;28;1333;-75
2023/05/03 01:40:35;;;;;;;11.98;8.70;;;;;;;;;;513870;28;1432;-75
2023/05/03 01:40:52;;;;;;;12.68;8.70;;;;;;;;;;514062;28;1139;-75
2023/05/03 01:41:11;;;;;;;11.50;8.68;;;;;;;;;;512195;28;1259;-76
2023/05/03 01:41:27;;;;;;;10.65;8.48;;;;;;;;;;512152;28;959;-76
2023/05/03 01:41:42;;;;;;;10.25;8.75;;;;;;;;;;513347;28;936;-76
2023/05/03 01:41:58;;;;;;;10.07;8.57;;;;;;;;;;511153;28;1482;-76
2023/05/03 01:42:14;;;;;;;9.82;8.50;;;;;;;;;;509914;28;1329;-76
2023/05/03 01:42:30;;;;;;;11.77;8.60;;;;;;;;;;510024;28;1443;-76
2023/05/03 01:42:47;;;;;;;12.50;9.00;;;;;;;;;;511481;28;1395;-76
2023/05/03 01:43:03;;;;;;;10.73;9.00;;;;;;;;;;510215;28;1239;-73
2023/05/03 01:43:19;;;;;;;12.18;8.73;;;;;;;;;;509529;28;1327;-73
2023/05/03 01:43:39;;;;;;;11.93;8.52;;;;;;;;;;511751;28;1381;-73
2023/05/03 01:43:55;;;;;;;12.10;8.65;;;;;;;;;;511235;28;1813;-73
2023/05/03 01:44:10;;;;;;;10.95;8.38;;;;;;;;;;513838;28;1365;-73
2023/05/03 01:44:26;;;;;;;9.63;8.40;;;;;;;;;;509591;28;1378;-73
2023/05/03 01:44:42;;;;;;;11.80;8.80;;;;;;;;;;508310;28;1301;-73
2023/05/03 01:44:58;;;;;;;12.13;8.80;;;;;;;;;;509799;28;1373;-73
2023/05/03 01:45:14;;;;;;;11.88;9.02;;;;;;;;;;508813;28;1091;-73
2023/05/03 01:45:30;;;;;;;11.05;9.00;;;;;;;;;;509400;28;1217;-72
2023/05/03 01:45:45;;;;;;;10.57;8.77;;;;;;;;;;510985;28;1264;-72
2023/05/03 01:46:01;;;;;;;10.60;8.55;;;;;;;;;;510220;28;1439;-73
2023/05/03 01:46:16;;;;;;;9.83;8.60;;;;;;;;;;510919;28;1148;-76
2023/05/03 01:46:32;;;;;;;10.90;8.88;;;;;;;;;;514591;28;1309;-74
2023/05/03 01:46:48;;;;;;;11.17;8.63;;;;;;;;;;513755;28;1349;-75
2023/05/03 01:47:03;;;;;;;11.77;9.07;;;;;;;;;;512843;28;1376;-74
2023/05/03 01:47:19;;;;;;;11.73;9.20;;;;;;;;;;511153;28;1019;-73
2023/05/03 01:47:35;;;;;;;11.20;8.85;;;;;;;;;;509319;28;1365;-73
2023/05/03 01:47:50;;;;;;;11.43;8.97;;;;;;;;;;510155;28;1273;-73
2023/05/03 01:48:15;;;;;;;9.73;8.65;;;;;;;;;;510268;28;1249;-73
2023/05/03 01:48:31;;;;;;;8.82;7.93;;;;;;;;;;510083;28;987;-73
2023/05/03 01:48:47;;;;;;;10.00;8.40;;;;;;;;;;508782;28;1261;-73
2023/05/03 01:49:02;;;;;;;10.37;8.23;;;;;;;;;;510540;28;1455;-72
2023/05/03 01:49:18;;;;;;;9.93;8.25;;;;;;;;;;509992;28;1397;-73
2023/05/03 01:49:34;;;;;;;9.90;8.37;;;;;;;;;;513136;28;1305;-73
2023/05/03 01:49:49;;;;;;;10.70;8.40;;;;;;;;;;512958;28;1877;-73
2023/05/03 01:50:05;;;;;;;11.07;8.45;;;;;;;;;;512693;28;1392;-73
2023/05/03 01:50:20;;;;;;;10.87;8.63;;;;;;;;;;512156;28;1411;-74
2023/05/03 01:50:35;;;;;;;10.77;8.98;;;;;;;;;;513484;28;1431;-73